createdAt,value
2022-08-28T00:02:23.826Z,10.38
2022-08-28T00:05:32.322Z,14.23
2022-08-28T00:08:37.701Z,9.25
2022-08-28T00:11:45.491Z,17.85
2022-08-28T00:14:50.500Z,26.48
2022-08-28T00:17:55.610Z,9.52
2022-08-28T00:21:01.777Z,12.02
2022-08-28T00:24:07.537Z,16.67
2022-08-28T00:27:27.563Z,11.18
2022-08-28T00:30:37.713Z,13.98
2022-08-28T00:33:43.367Z,15.68
2022-08-28T00:36:48.424Z,13.38
2022-08-28T00:39:53.854Z,15.32
2022-08-28T00:43:01.808Z,18.50
2022-08-28T00:46:09.303Z,14.60
2022-08-28T00:49:14.995Z,11.27
2022-08-28T00:52:21.601Z,17.13
2022-08-28T00:55:29.384Z,13.02
2022-08-28T00:58:37.566Z,14.13
2022-08-28T01:01:42.692Z,16.67
2022-08-28T01:04:48.002Z,16.63
2022-08-28T01:07:53.348Z,13.52
2022-08-28T01:11:00.233Z,20.80
2022-08-28T01:14:08.665Z,12.52
2022-08-28T01:17:14.976Z,15.10
2022-08-28T01:20:23.949Z,12.43
2022-08-28T01:23:47.803Z,15.07
2022-08-28T01:26:52.943Z,13.63
2022-08-28T01:29:58.078Z,16.98
2022-08-28T01:33:03.164Z,19.77
2022-08-28T01:36:08.607Z,18.60
2022-08-28T01:39:19.238Z,15.25
2022-08-28T01:42:26.076Z,14.98
2022-08-28T01:45:31.465Z,19.35
2022-08-28T01:48:39.373Z,16.55
2022-08-28T01:51:45.058Z,19.98
2022-08-28T01:54:52.548Z,14.80
2022-08-28T01:57:59.153Z,11.65
2022-08-28T02:01:04.109Z,13.63
2022-08-28T02:04:09.495Z,11.60
2022-08-28T02:07:15.038Z,15.13
2022-08-28T02:10:25.365Z,18.75
2022-08-28T02:13:30.368Z,13.90
2022-08-28T02:16:35.298Z,10.55
2022-08-28T02:19:40.261Z,9.30
2022-08-28T02:22:45.233Z,14.32
2022-08-28T02:25:52.795Z,9.88
2022-08-28T02:28:58.730Z,13.27
2022-08-28T02:32:05.939Z,12.85
2022-08-28T02:35:12.522Z,15.75
2022-08-28T02:38:17.872Z,14.23
2022-08-28T02:41:26.464Z,16.27
2022-08-28T02:44:31.429Z,13.50
2022-08-28T02:47:36.366Z,13.65
2022-08-28T02:50:41.273Z,12.02
2022-08-28T02:53:46.434Z,21.75
2022-08-28T02:56:54.409Z,11.45
2022-08-28T02:59:59.551Z,10.55
2022-08-28T03:03:05.357Z,19.30
2022-08-28T03:06:11.645Z,15.82
2022-08-28T03:09:16.573Z,11.43
2022-08-28T03:12:24.688Z,13.07
2022-08-28T03:15:29.834Z,12.27
2022-08-28T03:18:35.734Z,17.67
2022-08-28T03:21:41.319Z,11.02
2022-08-28T03:24:46.629Z,12.65
2022-08-28T03:27:54.432Z,16.25
2022-08-28T03:30:59.658Z,12.90
2022-08-28T03:34:05.481Z,10.85
2022-08-28T03:37:10.446Z,9.70
2022-08-28T03:40:16.503Z,12.23
2022-08-28T03:43:26.341Z,20.73
2022-08-28T03:46:34.966Z,17.83
2022-08-28T03:49:39.905Z,10.68
2022-08-28T03:52:44.923Z,14.95
2022-08-28T03:55:49.848Z,16.33
2022-08-28T03:59:00.272Z,10.75
2022-08-28T04:02:05.268Z,14.88
2022-08-28T04:05:11.152Z,9.10
2022-08-28T04:08:17.501Z,14.18
2022-08-28T04:11:22.512Z,14.20
2022-08-28T04:14:30.163Z,10.35
2022-08-28T04:17:35.127Z,10.80
2022-08-28T04:20:40.310Z,13.45
2022-08-28T04:23:46.422Z,14.15
2022-08-28T04:26:51.369Z,14.93
2022-08-28T04:29:59.247Z,9.48
2022-08-28T04:33:05.086Z,11.10
2022-08-28T04:36:14.414Z,13.52
2022-08-28T04:39:19.357Z,10.57
2022-08-28T04:42:24.346Z,16.67
2022-08-28T04:45:31.905Z,11.65
2022-08-28T04:48:37.137Z,16.02
2022-08-28T04:51:42.691Z,12.95
2022-08-28T04:54:47.654Z,13.45
2022-08-28T04:57:53.217Z,13.60
2022-08-28T05:01:01.155Z,12.18
2022-08-28T05:04:06.914Z,8.07
2022-08-28T05:07:11.890Z,8.65
2022-08-28T05:10:16.874Z,10.10
2022-08-28T05:13:21.971Z,11.02
2022-08-28T05:16:29.695Z,13.63
2022-08-28T05:19:35.969Z,21.58
2022-08-28T05:22:40.904Z,10.82
2022-08-28T05:25:47.596Z,13.25
2022-08-28T05:28:52.594Z,10.60
2022-08-28T05:32:00.126Z,9.73
2022-08-28T05:35:05.152Z,9.95
2022-08-28T05:38:10.758Z,12.10
2022-08-28T05:41:20.730Z,9.43
2022-08-28T05:44:25.740Z,16.00
2022-08-28T05:47:34.241Z,12.27
2022-08-28T05:50:44.519Z,11.68
2022-08-28T05:53:53.081Z,8.63
2022-08-28T05:56:58.102Z,12.95
2022-08-28T06:00:03.076Z,7.82
2022-08-28T06:03:11.918Z,7.43
2022-08-28T06:06:16.869Z,15.70
2022-08-28T06:09:28.806Z,6.10
2022-08-28T06:12:34.498Z,16.73
2022-08-28T06:15:44.903Z,10.98
2022-08-28T06:18:53.128Z,13.40
2022-08-28T06:21:59.934Z,15.48
2022-08-28T06:25:08.140Z,11.63
2022-08-28T06:28:13.297Z,20.13
2022-08-28T06:31:24.557Z,12.05
2022-08-28T06:34:33.672Z,10.80
2022-08-28T06:37:38.585Z,17.90
2022-08-28T06:40:44.885Z,12.23
2022-08-28T06:43:49.929Z,14.15
2022-08-28T06:46:57.277Z,11.25
2022-08-28T06:50:04.747Z,5.82
2022-08-28T06:53:10.165Z,11.48
2022-08-28T06:56:26.048Z,5.40
2022-08-28T06:59:31.649Z,13.65
2022-08-28T07:02:36.665Z,16.35
2022-08-28T07:05:44.266Z,8.57
2022-08-28T07:08:49.666Z,9.55
2022-08-28T07:11:55.072Z,14.35
2022-08-28T07:15:01.791Z,12.52
2022-08-28T07:18:07.919Z,7.45
2022-08-28T07:21:16.356Z,8.98
2022-08-28T07:24:21.941Z,7.03
2022-08-28T07:27:27.675Z,10.65
2022-08-28T07:30:32.625Z,25.38
2022-08-28T07:33:37.570Z,11.23
2022-08-28T07:36:46.126Z,6.05
2022-08-28T07:39:51.165Z,7.50
2022-08-28T07:43:08.810Z,12.38
2022-08-28T07:46:14.258Z,9.82
2022-08-28T07:49:19.690Z,11.77
2022-08-28T07:52:27.365Z,9.90
2022-08-28T07:55:33.182Z,9.48
2022-08-28T07:58:38.843Z,10.27
2022-08-28T08:01:46.942Z,8.10
2022-08-28T08:04:52.187Z,11.75
2022-08-28T08:07:59.829Z,7.68
2022-08-28T08:11:08.038Z,9.45
2022-08-28T08:14:16.914Z,6.75
2022-08-28T08:17:21.999Z,10.02
2022-08-28T08:20:27.061Z,8.27
2022-08-28T08:23:35.992Z,6.05
2022-08-28T08:26:46.919Z,14.95
2022-08-28T08:30:02.081Z,9.52
2022-08-28T08:33:07.190Z,8.45
2022-08-28T08:36:14.698Z,5.28
2022-08-28T08:39:22.337Z,5.03
2022-08-28T08:42:29.295Z,4.68
2022-08-28T08:45:36.869Z,6.22
2022-08-28T08:48:47.319Z,10.93
2022-08-28T08:52:01.469Z,8.18
2022-08-28T08:58:33.057Z,6.07
2022-08-28T09:01:44.605Z,2.88
2022-08-28T09:04:57.662Z,7.80
2022-08-28T09:08:05.730Z,7.05
2022-08-28T09:11:27.254Z,9.73
2022-08-28T09:14:44.418Z,8.15
2022-08-28T09:17:52.815Z,4.80
2022-08-28T09:21:00.007Z,5.10
2022-08-28T09:24:10.968Z,5.57
2022-08-28T09:27:28.987Z,9.13
2022-08-28T09:30:35.160Z,5.93
2022-08-28T09:33:44.982Z,3.67
2022-08-28T09:36:49.998Z,4.47
2022-08-28T09:40:19.482Z,5.50
2022-08-28T09:43:26.924Z,4.80
2022-08-28T09:46:35.022Z,8.60
2022-08-28T09:49:40.061Z,10.32
2022-08-28T09:52:45.114Z,4.85
2022-08-28T09:56:00.280Z,6.35
2022-08-28T09:59:09.308Z,6.75
2022-08-28T10:02:25.805Z,3.47
2022-08-28T10:05:40.234Z,8.98
2022-08-28T10:08:56.886Z,14.15
2022-08-28T10:12:14.117Z,3.30
2022-08-28T10:15:24.770Z,5.38
2022-08-28T10:18:38.912Z,6.18
2022-08-28T10:25:05.432Z,7.57
2022-08-28T10:28:36.179Z,2.72
2022-08-28T10:31:49.098Z,3.83
2022-08-28T10:35:03.522Z,5.15
2022-08-28T10:38:14.409Z,4.65
2022-08-28T10:41:24.638Z,3.00
2022-08-28T10:44:39.371Z,3.00
2022-08-28T10:47:49.801Z,3.80
2022-08-28T10:50:57.739Z,4.97
2022-08-28T10:54:28.344Z,8.18
2022-08-28T10:57:39.958Z,3.00
2022-08-28T11:00:49.550Z,6.15
2022-08-28T11:03:55.665Z,5.22
2022-08-28T11:07:04.852Z,3.40
2022-08-28T11:10:23.865Z,4.25
2022-08-28T11:13:55.708Z,5.40
2022-08-28T11:17:06.827Z,6.25
2022-08-28T11:20:18.306Z,5.07
2022-08-28T11:23:30.043Z,6.50
2022-08-28T11:26:43.325Z,5.45
2022-08-28T11:30:08.615Z,5.43
2022-08-28T11:33:41.774Z,3.90
2022-08-28T11:37:04.972Z,5.18
2022-08-28T11:40:43.830Z,5.55
2022-08-28T11:43:53.302Z,4.55
2022-08-28T11:47:18.427Z,4.13
2022-08-28T11:50:29.582Z,5.47
2022-08-28T11:53:47.318Z,4.50
2022-08-28T11:57:04.723Z,5.43
2022-08-28T12:00:22.304Z,3.72
2022-08-28T12:03:33.322Z,3.60
2022-08-28T12:07:17.422Z,3.15
2022-08-28T12:10:52.526Z,4.50
2022-08-28T12:13:57.654Z,8.30
2022-08-28T12:17:31.208Z,9.73
2022-08-28T12:20:59.806Z,4.30
2022-08-28T12:24:09.790Z,8.70
2022-08-28T12:27:16.453Z,7.28
2022-08-28T12:30:31.758Z,5.50
2022-08-28T12:33:49.469Z,4.32
2022-08-28T12:37:00.169Z,5.38
2022-08-28T12:40:18.749Z,5.55
2022-08-28T12:43:32.411Z,6.80
2022-08-28T12:46:41.006Z,4.88
2022-08-28T12:49:48.566Z,7.80
2022-08-28T12:52:56.165Z,6.90
2022-08-28T12:56:02.198Z,8.32
2022-08-28T12:59:27.524Z,3.35
2022-08-28T13:02:36.198Z,5.40
2022-08-28T13:05:44.167Z,9.50
2022-08-28T13:08:51.713Z,4.40
2022-08-28T13:11:56.885Z,2.10
2022-08-28T13:15:02.218Z,6.22
2022-08-28T13:18:08.394Z,7.00
2022-08-28T13:21:36.172Z,6.18
2022-08-28T13:24:48.353Z,7.25
2022-08-28T13:28:03.031Z,5.07
2022-08-28T13:31:23.214Z,4.30
2022-08-28T13:34:29.766Z,7.70
2022-08-28T13:37:48.175Z,5.72
2022-08-28T13:40:59.436Z,3.70
2022-08-28T13:44:04.958Z,5.65
2022-08-28T13:47:10.138Z,6.22
2022-08-28T13:50:15.173Z,4.75
2022-08-28T13:53:23.690Z,5.00
2022-08-28T13:56:28.916Z,4.47
2022-08-28T13:59:34.565Z,4.65
2022-08-28T14:02:54.699Z,2.53
2022-08-28T14:05:59.958Z,7.35
2022-08-28T14:09:12.997Z,3.65
2022-08-28T14:12:18.141Z,4.22
2022-08-28T14:15:23.223Z,8.13
2022-08-28T14:18:29.174Z,10.40
2022-08-28T14:21:34.891Z,2.53
2022-08-28T14:24:42.702Z,9.27
2022-08-28T14:27:47.917Z,3.50
2022-08-28T14:30:54.750Z,6.00
2022-08-28T14:34:00.645Z,2.92
2022-08-28T14:37:06.429Z,2.70
2022-08-28T14:40:15.668Z,6.38
2022-08-28T14:43:21.353Z,6.95
2022-08-28T14:46:31.128Z,6.40
2022-08-28T14:49:36.071Z,3.25
2022-08-28T14:52:41.000Z,3.30
2022-08-28T14:55:51.478Z,5.50
2022-08-28T14:58:56.410Z,4.68
2022-08-28T15:02:03.053Z,5.50
2022-08-28T15:05:08.947Z,4.20
2022-08-28T15:08:18.877Z,6.57
2022-08-28T15:11:28.850Z,4.80
2022-08-28T15:14:34.189Z,7.60
2022-08-28T15:17:39.175Z,4.93
2022-08-28T15:20:46.368Z,5.60
2022-08-28T15:23:53.042Z,3.53
2022-08-28T15:27:01.462Z,4.45
2022-08-28T15:30:07.465Z,6.63
2022-08-28T15:33:12.592Z,3.78
2022-08-28T15:36:17.818Z,6.68
2022-08-28T15:39:35.323Z,9.70
2022-08-28T15:42:45.957Z,6.07
2022-08-28T15:45:51.343Z,8.73
2022-08-28T15:48:58.020Z,3.78
2022-08-28T15:52:03.074Z,4.50
2022-08-28T15:55:10.251Z,1.80
2022-08-28T15:58:18.524Z,1.65
2022-08-28T16:01:24.156Z,4.82
2022-08-28T16:04:29.768Z,4.18
2022-08-28T16:07:34.704Z,6.10
2022-08-28T16:10:40.076Z,3.60
2022-08-28T16:13:47.883Z,5.22
2022-08-28T16:16:52.829Z,3.03
2022-08-28T16:19:57.973Z,2.28
2022-08-28T16:23:02.969Z,4.47
2022-08-28T16:26:09.338Z,3.22
2022-08-28T16:29:17.708Z,3.72
2022-08-28T16:32:23.434Z,5.90
2022-08-28T16:35:28.442Z,5.95
2022-08-28T16:38:34.470Z,5.25
2022-08-28T16:41:39.705Z,1.48
2022-08-28T16:44:47.235Z,5.63
2022-08-28T16:47:52.637Z,1.65
2022-08-28T16:50:57.575Z,6.68
2022-08-28T16:54:02.493Z,4.00
2022-08-28T16:57:07.646Z,2.10
2022-08-28T17:00:19.422Z,4.18
2022-08-28T17:03:26.580Z,3.60
2022-08-28T17:06:35.536Z,3.83
2022-08-28T17:09:40.632Z,4.32
2022-08-28T17:12:45.822Z,6.60
2022-08-28T17:15:53.519Z,6.28
2022-08-28T17:18:58.695Z,4.30
2022-08-28T17:22:16.141Z,2.03
2022-08-28T17:25:21.054Z,6.70
2022-08-28T17:28:26.025Z,3.88
2022-08-28T17:31:33.718Z,2.17
2022-08-28T17:34:39.058Z,3.80
2022-08-28T17:37:44.921Z,4.38
2022-08-28T17:40:49.857Z,4.43
2022-08-28T17:43:54.772Z,1.38
2022-08-28T17:47:02.319Z,1.85
2022-08-28T17:50:08.503Z,2.97
2022-08-28T17:53:13.457Z,6.95
2022-08-28T17:56:18.467Z,6.32
2022-08-28T17:59:27.863Z,7.50
2022-08-28T18:02:35.403Z,7.70
2022-08-28T18:05:41.315Z,3.05
2022-08-28T18:08:47.805Z,3.55
2022-08-28T18:11:52.843Z,3.15
2022-08-28T18:14:57.837Z,6.00
2022-08-28T18:18:05.550Z,4.55
2022-08-28T18:21:12.017Z,4.65
2022-08-28T18:24:17.306Z,7.80
2022-08-28T18:27:23.113Z,2.38
2022-08-28T18:30:28.186Z,13.00
2022-08-28T18:33:37.207Z,5.35
2022-08-28T18:36:42.697Z,4.85
2022-08-28T18:39:47.709Z,3.08
2022-08-28T18:42:56.607Z,3.20
2022-08-28T18:46:02.318Z,4.93
2022-08-28T18:49:10.022Z,3.53
2022-08-28T18:52:15.171Z,4.30
2022-08-28T18:55:20.743Z,9.60
2022-08-28T18:58:27.408Z,6.55
2022-08-28T19:01:32.447Z,4.30
2022-08-28T19:04:41.560Z,8.40
2022-08-28T19:07:46.825Z,3.50
2022-08-28T19:10:52.105Z,7.90
2022-08-28T19:13:57.134Z,8.43
2022-08-28T19:17:02.417Z,4.10
2022-08-28T19:20:13.257Z,7.78
2022-08-28T19:23:18.873Z,4.25
2022-08-28T19:26:24.593Z,7.53
2022-08-28T19:29:29.656Z,5.88
2022-08-28T19:32:34.654Z,7.97
2022-08-28T19:35:42.277Z,8.88
2022-08-28T19:38:47.594Z,10.82
2022-08-28T19:41:53.029Z,7.43
2022-08-28T19:44:59.783Z,10.13
2022-08-28T19:48:05.763Z,8.25
2022-08-28T19:51:22.920Z,6.15
2022-08-28T19:54:28.889Z,9.32
2022-08-28T19:57:33.980Z,7.75
2022-08-28T20:00:39.109Z,8.02
2022-08-28T20:03:44.766Z,8.05
2022-08-28T20:06:52.530Z,5.15
2022-08-28T20:09:57.634Z,9.88
2022-08-28T20:13:03.049Z,4.05
2022-08-28T20:16:08.618Z,7.43
2022-08-28T20:19:15.430Z,7.00
2022-08-28T20:22:22.976Z,5.25
2022-08-28T20:25:27.947Z,5.40
2022-08-28T20:28:33.365Z,5.80
2022-08-28T20:31:40.481Z,8.20
2022-08-28T20:34:45.629Z,7.85
2022-08-28T20:37:53.234Z,7.20
2022-08-28T20:41:05.987Z,3.65
2022-08-28T20:44:12.940Z,2.78
2022-08-28T20:47:18.839Z,7.60
2022-08-28T20:50:24.520Z,8.40
2022-08-28T20:53:37.894Z,7.63
2022-08-28T20:56:44.055Z,8.65
2022-08-28T20:59:50.183Z,3.75
2022-08-28T21:02:55.170Z,9.15
2022-08-28T21:06:00.207Z,7.28
2022-08-28T21:09:07.901Z,8.15
2022-08-28T21:12:13.066Z,12.45
2022-08-28T21:15:18.420Z,8.30
2022-08-28T21:18:23.442Z,14.70
2022-08-28T21:21:28.936Z,6.45
2022-08-28T21:24:36.474Z,8.30
2022-08-28T21:27:42.081Z,7.30
2022-08-28T21:30:47.088Z,6.25
2022-08-28T21:33:52.099Z,6.70
2022-08-28T21:36:57.194Z,2.28
2022-08-28T21:40:06.225Z,8.48
2022-08-28T21:43:11.270Z,5.03
2022-08-28T21:46:18.654Z,4.40
2022-08-28T21:49:24.158Z,5.82
2022-08-28T21:52:32.045Z,4.85
2022-08-28T21:55:39.622Z,7.65
2022-08-28T21:58:44.606Z,6.72
2022-08-28T22:01:49.611Z,4.78
2022-08-28T22:04:54.890Z,7.70
2022-08-28T22:07:59.901Z,4.18
2022-08-28T22:11:07.580Z,4.70
2022-08-28T22:14:13.998Z,7.35
2022-08-28T22:17:19.237Z,5.22
2022-08-28T22:20:24.281Z,4.68
2022-08-28T22:23:28.591Z,6.35
2022-08-28T22:26:36.273Z,6.18
2022-08-28T22:29:41.335Z,5.07
2022-08-28T22:32:46.298Z,9.85
2022-08-28T22:35:52.070Z,5.82
2022-08-28T22:38:57.046Z,6.43
2022-08-28T22:42:04.686Z,4.55
2022-08-28T22:45:10.432Z,7.18
2022-08-28T22:48:15.622Z,11.18
2022-08-28T22:51:22.073Z,8.32
2022-08-28T22:54:27.125Z,7.68
2022-08-28T22:57:34.675Z,7.35
2022-08-28T23:00:41.070Z,4.90
2022-08-28T23:03:46.505Z,10.07
2022-08-28T23:06:51.526Z,4.60
2022-08-28T23:09:56.802Z,7.00
2022-08-28T23:13:04.321Z,7.18
2022-08-28T23:16:10.106Z,5.25
2022-08-28T23:19:15.129Z,5.97
2022-08-28T23:22:20.843Z,10.50
2022-08-28T23:25:27.095Z,6.88
2022-08-28T23:28:34.619Z,5.10
2022-08-28T23:31:40.237Z,9.40
2022-08-28T23:34:45.311Z,7.47
2022-08-28T23:37:51.934Z,7.63
2022-08-28T23:40:57.414Z,5.40
2022-08-28T23:44:08.521Z,5.22
2022-08-28T23:47:14.094Z,5.60
2022-08-28T23:50:22.361Z,10.07
2022-08-28T23:53:27.354Z,8.23
2022-08-28T23:56:32.857Z,5.47
2022-08-28T23:59:40.439Z,9.60
